createdAt,value
2023-04-23T00:04:03.852Z,43.41
2023-04-23T00:09:02.912Z,44.12
2023-04-23T00:14:02.158Z,44.13
2023-04-23T00:19:02.446Z,43.91
2023-04-23T00:24:02.702Z,44.01
2023-04-23T00:29:00.933Z,42.10
2023-04-23T00:33:59.185Z,43.01
2023-04-23T00:38:58.443Z,42.82
2023-04-23T00:43:57.709Z,43.51
2023-04-23T00:48:56.991Z,43.54
2023-04-23T00:53:58.257Z,43.63
2023-04-23T00:58:55.497Z,43.66
2023-04-23T01:03:54.827Z,43.98
2023-04-23T01:08:54.992Z,43.77
2023-04-23T01:13:53.244Z,43.98
2023-04-23T01:18:52.559Z,44.78
2023-04-23T01:23:53.868Z,45.00
2023-04-23T01:28:52.136Z,44.28
2023-04-23T01:33:50.442Z,44.58
2023-04-23T01:38:49.727Z,44.58
2023-04-23T01:43:49.012Z,45.40
2023-04-23T01:48:48.276Z,45.50
2023-04-23T01:53:47.588Z,46.75
2023-04-23T01:58:46.951Z,47.03
2023-04-23T02:03:47.265Z,47.23
2023-04-23T02:08:46.246Z,46.30
2023-04-23T02:13:44.532Z,45.28
2023-04-23T02:18:44.828Z,43.76
2023-04-23T02:23:43.103Z,43.43
2023-04-23T02:28:43.349Z,43.66
2023-04-23T02:33:42.614Z,43.33
2023-04-23T02:38:40.857Z,42.54
2023-04-23T02:43:42.189Z,44.58
2023-04-23T02:48:40.428Z,45.08
2023-04-23T02:53:38.660Z,45.30
2023-04-23T02:58:38.926Z,46.23
2023-04-23T03:03:38.409Z,45.00
2023-04-23T03:08:36.482Z,45.62
2023-04-23T03:13:36.782Z,45.22
2023-04-23T03:18:36.019Z,45.62
2023-04-23T03:23:34.282Z,44.92
2023-04-23T03:28:33.547Z,46.65
2023-04-23T03:33:34.831Z,46.55
2023-04-23T03:38:33.130Z,46.35
2023-04-23T03:43:31.379Z,46.45
2023-04-23T03:48:31.640Z,45.42
2023-04-23T03:53:29.943Z,44.72
2023-04-23T03:58:29.238Z,46.53
2023-04-23T04:03:28.817Z,45.30
2023-04-23T04:08:28.703Z,43.13
2023-04-23T04:13:28.983Z,43.54
2023-04-23T04:18:28.229Z,44.06
2023-04-23T04:23:27.512Z,45.00
2023-04-23T04:28:24.770Z,43.55
2023-04-23T04:33:24.054Z,42.25
2023-04-23T04:38:23.329Z,42.85
2023-04-23T04:43:23.582Z,44.70
2023-04-23T04:48:20.897Z,44.30
2023-04-23T04:53:21.149Z,43.48
2023-04-23T04:58:20.433Z,43.60
2023-04-23T05:03:19.896Z,42.68
2023-04-23T05:08:18.872Z,43.40
2023-04-23T05:13:18.170Z,43.42
2023-04-23T05:18:18.478Z,43.92
2023-04-23T05:23:16.715Z,43.19
2023-04-23T05:28:16.007Z,43.52
2023-04-23T05:33:16.277Z,43.32
2023-04-23T05:38:14.580Z,43.74
2023-04-23T05:43:13.863Z,43.64
2023-04-23T05:48:14.139Z,43.74
2023-04-23T05:53:12.414Z,45.29
2023-04-23T05:58:11.690Z,45.21
2023-04-23T06:03:12.112Z,45.18
2023-04-23T06:08:10.211Z,44.56
2023-04-23T06:13:09.492Z,43.72
2023-04-23T06:18:08.937Z,43.50
2023-04-23T06:23:09.044Z,42.07
2023-04-23T06:28:07.343Z,42.25
2023-04-23T06:33:06.650Z,41.75
2023-04-23T06:38:05.977Z,42.57
2023-04-23T06:43:06.244Z,42.57
2023-04-23T06:48:04.555Z,42.77
2023-04-23T06:53:02.817Z,42.80
2023-04-23T06:58:04.121Z,43.19
2023-04-23T07:03:03.509Z,43.10
2023-04-23T07:08:01.687Z,43.52
2023-04-23T07:13:00.850Z,43.52
2023-04-23T07:18:00.197Z,43.94
2023-04-23T07:22:59.277Z,44.64
2023-04-23T07:27:56.583Z,46.39
2023-04-23T07:32:58.919Z,44.74
2023-04-23T07:37:59.165Z,43.38
2023-04-23T07:42:56.412Z,42.33
2023-04-23T07:47:56.732Z,41.30
2023-04-23T07:52:55.017Z,39.56
2023-04-23T07:57:55.294Z,39.62
2023-04-23T08:02:53.724Z,38.90
2023-04-23T08:07:52.730Z,38.48
2023-04-23T08:12:53.039Z,37.55
2023-04-23T08:17:51.316Z,35.89
2023-04-23T08:22:51.572Z,35.97
2023-04-23T08:27:51.856Z,36.27
2023-04-23T08:32:51.331Z,35.46
2023-04-23T08:37:49.469Z,35.97
2023-04-23T08:42:47.747Z,35.46
2023-04-23T08:47:47.034Z,36.17
2023-04-23T08:52:46.316Z,35.44
2023-04-23T08:57:47.586Z,35.85
2023-04-23T09:02:44.906Z,35.14
2023-04-23T09:07:45.043Z,35.74
2023-04-23T09:12:43.352Z,34.71
2023-04-23T09:17:42.431Z,34.52
2023-04-23T09:22:43.169Z,34.41
2023-04-23T09:27:41.880Z,34.22
2023-04-23T09:32:40.190Z,34.13
2023-04-23T09:37:40.443Z,35.44
2023-04-23T09:42:38.692Z,34.52
2023-04-23T09:47:38.006Z,33.80
2023-04-23T09:52:38.111Z,34.31
2023-04-23T09:57:37.394Z,33.92
2023-04-23T10:02:35.715Z,33.92
2023-04-23T10:07:34.792Z,33.72
2023-04-23T10:12:52.057Z,33.14
2023-04-23T10:17:34.249Z,32.12
2023-04-23T10:22:32.551Z,32.94
2023-04-23T10:27:40.363Z,32.53
2023-04-23T10:32:31.174Z,31.69
2023-04-23T10:37:30.295Z,31.16
2023-04-23T10:42:29.599Z,31.18
2023-04-23T10:47:30.967Z,30.87
2023-04-23T10:52:28.058Z,29.83
2023-04-23T10:57:27.364Z,30.98
2023-04-23T11:02:27.964Z,30.87
2023-04-23T11:07:25.971Z,31.15
2023-04-23T11:12:26.341Z,30.44
2023-04-23T11:17:25.593Z,31.36
2023-04-23T11:22:23.816Z,30.85
2023-04-23T11:27:23.088Z,30.77
2023-04-23T11:32:22.405Z,30.87
2023-04-23T11:37:22.502Z,30.34
2023-04-23T11:42:20.778Z,30.97
2023-04-23T11:47:20.067Z,30.77
2023-04-23T11:52:20.347Z,30.27
2023-04-23T11:57:18.629Z,30.27
2023-04-23T12:02:17.989Z,30.68
2023-04-23T12:07:26.248Z,31.39
2023-04-23T12:12:16.323Z,30.68
2023-04-23T12:17:17.617Z,30.79
2023-04-23T12:22:14.865Z,29.85
2023-04-23T12:27:14.159Z,30.46
2023-04-23T12:32:14.492Z,30.98
2023-04-23T12:37:11.748Z,30.97
2023-04-23T12:42:11.042Z,30.76
2023-04-23T12:47:12.328Z,30.34
2023-04-23T12:52:13.417Z,31.46
2023-04-23T12:57:09.751Z,31.66
2023-04-23T13:02:09.212Z,31.66
2023-04-23T13:07:08.379Z,31.45
2023-04-23T13:12:07.676Z,31.76
2023-04-23T13:17:06.951Z,32.27
2023-04-23T13:22:08.257Z,32.07
2023-04-23T13:27:06.531Z,34.10
2023-04-23T13:32:04.890Z,36.82
2023-04-23T13:37:03.973Z,39.08
2023-04-23T13:42:09.357Z,39.50
2023-04-23T13:47:03.394Z,39.38
2023-04-23T13:52:02.705Z,39.46
2023-04-23T13:57:01.005Z,39.98
2023-04-23T14:02:00.267Z,39.82
2023-04-23T14:07:00.539Z,40.12
2023-04-23T14:11:59.851Z,40.30
2023-04-23T14:16:59.111Z,40.20
2023-04-23T14:21:59.392Z,38.43
2023-04-23T14:26:57.681Z,38.37
2023-04-23T14:31:55.981Z,39.88
2023-04-23T14:36:55.248Z,40.16
2023-04-23T14:41:55.545Z,40.10
2023-04-23T14:46:53.813Z,37.81
2023-04-23T14:51:53.110Z,36.27
2023-04-23T14:56:52.396Z,35.24
2023-04-23T15:01:51.717Z,34.83
2023-04-23T15:06:51.051Z,34.64
2023-04-23T15:11:50.164Z,34.64
2023-04-23T15:16:50.644Z,34.73
2023-04-23T15:21:48.764Z,34.71
2023-04-23T15:26:48.032Z,34.20
2023-04-23T15:31:48.379Z,33.98
2023-04-23T15:36:45.667Z,34.41
2023-04-23T15:41:46.305Z,34.52
2023-04-23T15:46:45.194Z,34.43
2023-04-23T15:51:44.486Z,34.83
2023-04-23T15:56:43.861Z,34.23
2023-04-23T16:01:43.151Z,33.72
2023-04-23T16:06:42.524Z,33.50
2023-04-23T16:11:41.463Z,33.82
2023-04-23T16:16:41.715Z,34.01
2023-04-23T16:21:40.311Z,33.21
2023-04-23T16:26:41.242Z,33.61
2023-04-23T16:31:38.893Z,33.92
2023-04-23T16:36:37.698Z,34.12
2023-04-23T16:41:41.985Z,34.73
2023-04-23T16:46:36.300Z,35.03
2023-04-23T16:51:37.646Z,35.83
2023-04-23T16:56:35.741Z,36.11
2023-04-23T17:01:34.952Z,35.92
2023-04-23T17:06:34.045Z,35.94
2023-04-23T17:11:33.321Z,36.13
2023-04-23T17:16:32.019Z,37.56
2023-04-23T17:21:30.895Z,36.23
2023-04-23T17:26:32.448Z,37.60
2023-04-23T17:31:30.609Z,38.32
2023-04-23T17:36:28.349Z,39.37
2023-04-23T17:41:28.809Z,39.61
2023-04-23T17:46:27.315Z,38.45
2023-04-23T17:51:26.468Z,39.47
2023-04-23T17:56:25.713Z,40.08
2023-04-23T18:01:27.069Z,41.52
2023-04-23T18:06:24.163Z,38.87
2023-04-23T18:11:24.147Z,36.07
2023-04-23T18:16:22.508Z,34.98
2023-04-23T18:21:23.984Z,34.68
2023-04-23T18:26:21.012Z,36.10
2023-04-23T18:31:20.515Z,37.08
2023-04-23T18:36:19.689Z,38.41
2023-04-23T18:41:18.855Z,39.54
2023-04-23T18:46:17.983Z,38.01
2023-04-23T18:51:17.122Z,39.34
2023-04-23T18:56:16.084Z,40.76
2023-04-23T19:01:16.734Z,38.93
2023-04-23T19:06:15.549Z,39.84
2023-04-23T19:11:14.867Z,37.16
2023-04-23T19:16:14.596Z,37.03
2023-04-23T19:21:12.722Z,37.46
2023-04-23T19:26:10.970Z,36.21
2023-04-23T19:31:12.354Z,37.63
2023-04-23T19:36:10.551Z,36.82
2023-04-23T19:41:10.765Z,37.02
2023-04-23T19:46:09.549Z,36.80
2023-04-23T19:51:08.277Z,35.67
2023-04-23T19:56:07.577Z,34.84
2023-04-23T20:01:06.532Z,33.62
2023-04-23T20:06:06.877Z,33.11
2023-04-23T20:11:07.376Z,32.40
2023-04-23T20:16:04.322Z,31.48
2023-04-23T20:21:03.600Z,32.18
2023-04-23T20:26:02.893Z,31.99
2023-04-23T20:31:02.155Z,32.18
2023-04-23T20:36:01.724Z,31.36
2023-04-23T20:41:00.661Z,31.66
2023-04-23T20:46:01.011Z,31.76
2023-04-23T20:50:59.270Z,31.33
2023-04-23T20:55:58.534Z,30.61
2023-04-23T21:00:57.854Z,31.43
2023-04-23T21:05:58.147Z,30.09
2023-04-23T21:10:57.386Z,30.61
2023-04-23T21:15:56.672Z,29.89
2023-04-23T21:20:54.930Z,30.30
2023-04-23T21:25:54.190Z,30.51
2023-04-23T21:30:54.452Z,30.10
2023-04-23T21:35:52.717Z,29.89
2023-04-23T21:40:51.963Z,30.10
2023-04-23T21:45:52.224Z,30.20
2023-04-23T21:50:50.506Z,29.89
2023-04-23T21:55:50.812Z,29.68
2023-04-23T22:00:49.187Z,29.37
2023-04-23T22:05:49.324Z,29.58
2023-04-23T22:10:49.608Z,30.40
2023-04-23T22:15:46.892Z,30.40
2023-04-23T22:20:47.166Z,29.88
2023-04-23T22:25:45.461Z,30.50
2023-04-23T22:30:45.751Z,30.19
2023-04-23T22:35:44.043Z,29.78
2023-04-23T22:40:45.322Z,30.50
2023-04-23T22:45:42.644Z,30.60
2023-04-23T22:50:41.726Z,30.71
2023-04-23T22:55:42.026Z,30.91
2023-04-23T23:00:41.236Z,30.91
2023-04-23T23:05:40.479Z,30.61
2023-04-23T23:10:38.700Z,30.40
2023-04-23T23:15:38.976Z,30.40
2023-04-23T23:20:37.243Z,29.48
2023-04-23T23:25:36.511Z,28.55
2023-04-23T23:30:35.779Z,42.60
2023-04-23T23:35:35.062Z,40.44
2023-04-23T23:40:35.322Z,38.25
2023-04-23T23:45:36.638Z,39.28
2023-04-23T23:50:33.890Z,42.32
2023-04-23T23:55:33.163Z,40.12
